sensor_id;sensor_type;location;lat;lon;timestamp;P1;durP1;ratioP1;P2;durP2;ratioP2
47912;SDS011;33676;51.006;17.180;2022-12-18T00:00:11;42.80;;;24.30;;
47912;SDS011;33676;51.006;17.180;2022-12-18T00:03:00;43.70;;;22.80;;
47912;SDS011;33676;51.006;17.180;2022-12-18T00:05:29;42.00;;;22.60;;
47912;SDS011;33676;51.006;17.180;2022-12-18T00:07:58;36.00;;;21.30;;
47912;SDS011;33676;51.006;17.180;2022-12-18T00:10:27;39.20;;;20.50;;
47912;SDS011;33676;51.006;17.180;2022-12-18T00:12:56;36.60;;;21.40;;
47912;SDS011;33676;51.006;17.180;2022-12-18T00:15:25;39.80;;;21.20;;
47912;SDS011;33676;51.006;17.180;2022-12-18T00:17:54;40.20;;;22.30;;
47912;SDS011;33676;51.006;17.180;2022-12-18T00:20:22;43.50;;;20.60;;
47912;SDS011;33676;51.006;17.180;2022-12-18T00:22:54;46.50;;;23.10;;
47912;SDS011;33676;51.006;17.180;2022-12-18T00:25:23;39.90;;;23.80;;
47912;SDS011;33676;51.006;17.180;2022-12-18T00:27:51;37.70;;;21.00;;
47912;SDS011;33676;51.006;17.180;2022-12-18T00:30:20;37.10;;;20.00;;
47912;SDS011;33676;51.006;17.180;2022-12-18T00:32:49;29.80;;;19.50;;
47912;SDS011;33676;51.006;17.180;2022-12-18T00:35:17;34.90;;;17.60;;
47912;SDS011;33676;51.006;17.180;2022-12-18T00:37:46;37.50;;;20.00;;
47912;SDS011;33676;51.006;17.180;2022-12-18T00:40:14;38.00;;;19.60;;
47912;SDS011;33676;51.006;17.180;2022-12-18T00:42:43;36.40;;;22.30;;
47912;SDS011;33676;51.006;17.180;2022-12-18T00:45:25;37.50;;;19.70;;
47912;SDS011;33676;51.006;17.180;2022-12-18T00:47:55;38.00;;;19.10;;
47912;SDS011;33676;51.006;17.180;2022-12-18T00:50:24;39.00;;;21.60;;
47912;SDS011;33676;51.006;17.180;2022-12-18T00:52:53;34.00;;;18.60;;
47912;SDS011;33676;51.006;17.180;2022-12-18T00:55:22;39.20;;;18.30;;
47912;SDS011;33676;51.006;17.180;2022-12-18T00:57:51;40.50;;;19.10;;
47912;SDS011;33676;51.006;17.180;2022-12-18T01:00:20;37.40;;;18.50;;
47912;SDS011;33676;51.006;17.180;2022-12-18T01:02:50;31.70;;;17.90;;
47912;SDS011;33676;51.006;17.180;2022-12-18T01:05:19;41.30;;;20.10;;
47912;SDS011;33676;51.006;17.180;2022-12-18T01:07:48;33.70;;;18.70;;
47912;SDS011;33676;51.006;17.180;2022-12-18T01:10:17;33.30;;;18.10;;
47912;SDS011;33676;51.006;17.180;2022-12-18T01:12:45;38.10;;;20.00;;
47912;SDS011;33676;51.006;17.180;2022-12-18T01:15:15;37.90;;;20.30;;
47912;SDS011;33676;51.006;17.180;2022-12-18T01:17:44;44.50;;;20.90;;
47912;SDS011;33676;51.006;17.180;2022-12-18T01:20:13;33.90;;;19.20;;
47912;SDS011;33676;51.006;17.180;2022-12-18T01:22:42;38.20;;;20.30;;
47912;SDS011;33676;51.006;17.180;2022-12-18T01:25:10;30.30;;;17.80;;
47912;SDS011;33676;51.006;17.180;2022-12-18T01:27:39;30.10;;;18.10;;
47912;SDS011;33676;51.006;17.180;2022-12-18T01:30:08;33.30;;;17.00;;
47912;SDS011;33676;51.006;17.180;2022-12-18T01:32:37;29.50;;;17.40;;
47912;SDS011;33676;51.006;17.180;2022-12-18T01:35:06;38.10;;;17.00;;
47912;SDS011;33676;51.006;17.180;2022-12-18T01:37:35;30.60;;;18.60;;
47912;SDS011;33676;51.006;17.180;2022-12-18T01:40:04;31.50;;;16.30;;
47912;SDS011;33676;51.006;17.180;2022-12-18T01:42:33;27.90;;;16.80;;
47912;SDS011;33676;51.006;17.180;2022-12-18T01:48:06;27.90;;;17.80;;
47912;SDS011;33676;51.006;17.180;2022-12-18T01:50:39;44.50;;;21.00;;
47912;SDS011;33676;51.006;17.180;2022-12-18T01:53:15;27.40;;;16.30;;
47912;SDS011;33676;51.006;17.180;2022-12-18T01:55:51;28.90;;;15.90;;
47912;SDS011;33676;51.006;17.180;2022-12-18T02:01:22;27.30;;;16.90;;
47912;SDS011;33676;51.006;17.180;2022-12-18T02:03:52;26.20;;;15.90;;
47912;SDS011;33676;51.006;17.180;2022-12-18T02:06:27;39.10;;;21.00;;
47912;SDS011;33676;51.006;17.180;2022-12-18T02:11:59;33.00;;;18.30;;
47912;SDS011;33676;51.006;17.180;2022-12-18T02:17:40;33.50;;;18.80;;
47912;SDS011;33676;51.006;17.180;2022-12-18T02:20:46;35.20;;;17.80;;
47912;SDS011;33676;51.006;17.180;2022-12-18T02:26:27;30.70;;;15.10;;
47912;SDS011;33676;51.006;17.180;2022-12-18T02:29:06;27.30;;;14.90;;
47912;SDS011;33676;51.006;17.180;2022-12-18T02:31:45;33.60;;;15.60;;
47912;SDS011;33676;51.006;17.180;2022-12-18T02:34:21;29.70;;;16.70;;
47912;SDS011;33676;51.006;17.180;2022-12-18T02:36:54;22.80;;;13.00;;
47912;SDS011;33676;51.006;17.180;2022-12-18T02:39:26;30.00;;;15.70;;
47912;SDS011;33676;51.006;17.180;2022-12-18T02:41:58;30.60;;;17.50;;
47912;SDS011;33676;51.006;17.180;2022-12-18T02:44:27;33.20;;;18.90;;
47912;SDS011;33676;51.006;17.180;2022-12-18T02:46:56;30.90;;;17.30;;
47912;SDS011;33676;51.006;17.180;2022-12-18T02:55:45;30.10;;;15.20;;
47912;SDS011;33676;51.006;17.180;2022-12-18T03:04:09;26.00;;;16.90;;
47912;SDS011;33676;51.006;17.180;2022-12-18T03:06:50;31.40;;;18.30;;
47912;SDS011;33676;51.006;17.180;2022-12-18T03:09:32;33.60;;;17.50;;
47912;SDS011;33676;51.006;17.180;2022-12-18T03:12:10;29.10;;;17.70;;
47912;SDS011;33676;51.006;17.180;2022-12-18T03:15:14;30.10;;;16.60;;
47912;SDS011;33676;51.006;17.180;2022-12-18T03:17:48;27.10;;;16.20;;
47912;SDS011;33676;51.006;17.180;2022-12-18T03:20:22;33.40;;;17.70;;
47912;SDS011;33676;51.006;17.180;2022-12-18T03:22:57;28.20;;;15.40;;
47912;SDS011;33676;51.006;17.180;2022-12-18T03:25:30;28.00;;;18.90;;
47912;SDS011;33676;51.006;17.180;2022-12-18T03:28:01;38.70;;;17.50;;
47912;SDS011;33676;51.006;17.180;2022-12-18T03:30:33;32.60;;;19.20;;
47912;SDS011;33676;51.006;17.180;2022-12-18T03:33:16;32.70;;;19.70;;
47912;SDS011;33676;51.006;17.180;2022-12-18T03:35:50;31.00;;;16.20;;
47912;SDS011;33676;51.006;17.180;2022-12-18T03:38:18;29.40;;;15.50;;
47912;SDS011;33676;51.006;17.180;2022-12-18T03:41:04;30.40;;;17.20;;
47912;SDS011;33676;51.006;17.180;2022-12-18T03:43:45;36.90;;;18.70;;
47912;SDS011;33676;51.006;17.180;2022-12-18T03:46:36;24.50;;;16.30;;
47912;SDS011;33676;51.006;17.180;2022-12-18T03:49:23;30.20;;;17.40;;
47912;SDS011;33676;51.006;17.180;2022-12-18T03:52:06;33.40;;;16.20;;
47912;SDS011;33676;51.006;17.180;2022-12-18T03:54:39;36.90;;;18.20;;
47912;SDS011;33676;51.006;17.180;2022-12-18T03:57:13;29.60;;;16.50;;
47912;SDS011;33676;51.006;17.180;2022-12-18T03:59:47;33.90;;;18.30;;
47912;SDS011;33676;51.006;17.180;2022-12-18T04:02:19;28.10;;;16.60;;
47912;SDS011;33676;51.006;17.180;2022-12-18T04:04:52;33.60;;;18.30;;
47912;SDS011;33676;51.006;17.180;2022-12-18T04:07:26;36.90;;;18.20;;
47912;SDS011;33676;51.006;17.180;2022-12-18T04:09:56;35.10;;;18.20;;
47912;SDS011;33676;51.006;17.180;2022-12-18T04:12:29;24.40;;;16.50;;
47912;SDS011;33676;51.006;17.180;2022-12-18T04:14:58;36.00;;;18.80;;
47912;SDS011;33676;51.006;17.180;2022-12-18T04:17:26;49.80;;;27.70;;
47912;SDS011;33676;51.006;17.180;2022-12-18T04:19:55;42.90;;;25.90;;
47912;SDS011;33676;51.006;17.180;2022-12-18T04:22:23;37.20;;;21.20;;
47912;SDS011;33676;51.006;17.180;2022-12-18T04:24:52;53.70;;;31.50;;
47912;SDS011;33676;51.006;17.180;2022-12-18T04:27:21;34.10;;;20.20;;
47912;SDS011;33676;51.006;17.180;2022-12-18T04:29:49;32.80;;;19.30;;
47912;SDS011;33676;51.006;17.180;2022-12-18T04:32:18;29.30;;;16.60;;
47912;SDS011;33676;51.006;17.180;2022-12-18T04:34:47;34.00;;;18.90;;
47912;SDS011;33676;51.006;17.180;2022-12-18T04:37:16;28.60;;;16.60;;
47912;SDS011;33676;51.006;17.180;2022-12-18T04:39:44;44.10;;;26.10;;
47912;SDS011;33676;51.006;17.180;2022-12-18T04:42:13;52.70;;;30.20;;
47912;SDS011;33676;51.006;17.180;2022-12-18T04:44:41;30.00;;;18.30;;
47912;SDS011;33676;51.006;17.180;2022-12-18T04:47:10;60.30;;;31.50;;
47912;SDS011;33676;51.006;17.180;2022-12-18T04:49:38;53.90;;;30.80;;
47912;SDS011;33676;51.006;17.180;2022-12-18T04:52:07;38.90;;;21.10;;
47912;SDS011;33676;51.006;17.180;2022-12-18T04:54:36;35.00;;;17.80;;
47912;SDS011;33676;51.006;17.180;2022-12-18T04:57:04;34.50;;;17.90;;
47912;SDS011;33676;51.006;17.180;2022-12-18T04:59:33;26.10;;;17.80;;
47912;SDS011;33676;51.006;17.180;2022-12-18T05:02:01;31.00;;;16.90;;
47912;SDS011;33676;51.006;17.180;2022-12-18T05:04:30;40.60;;;22.20;;
47912;SDS011;33676;51.006;17.180;2022-12-18T05:06:59;30.10;;;19.30;;
47912;SDS011;33676;51.006;17.180;2022-12-18T05:09:28;31.90;;;18.20;;
47912;SDS011;33676;51.006;17.180;2022-12-18T05:11:56;31.00;;;18.70;;
47912;SDS011;33676;51.006;17.180;2022-12-18T05:14:25;32.60;;;18.10;;
47912;SDS011;33676;51.006;17.180;2022-12-18T05:16:55;28.50;;;19.00;;
47912;SDS011;33676;51.006;17.180;2022-12-18T05:19:28;30.70;;;18.10;;
47912;SDS011;33676;51.006;17.180;2022-12-18T05:21:57;42.10;;;22.20;;
47912;SDS011;33676;51.006;17.180;2022-12-18T05:24:25;36.80;;;21.00;;
47912;SDS011;33676;51.006;17.180;2022-12-18T05:26:55;47.30;;;25.80;;
47912;SDS011;33676;51.006;17.180;2022-12-18T05:29:24;48.00;;;28.10;;
47912;SDS011;33676;51.006;17.180;2022-12-18T05:31:53;40.50;;;19.80;;
47912;SDS011;33676;51.006;17.180;2022-12-18T05:34:21;42.20;;;21.30;;
47912;SDS011;33676;51.006;17.180;2022-12-18T05:36:50;38.60;;;21.80;;
47912;SDS011;33676;51.006;17.180;2022-12-18T05:39:18;36.70;;;21.10;;
47912;SDS011;33676;51.006;17.180;2022-12-18T05:41:47;33.90;;;22.10;;
47912;SDS011;33676;51.006;17.180;2022-12-18T05:44:16;37.40;;;22.10;;
47912;SDS011;33676;51.006;17.180;2022-12-18T05:46:44;35.40;;;23.30;;
47912;SDS011;33676;51.006;17.180;2022-12-18T05:49:13;39.00;;;19.70;;
47912;SDS011;33676;51.006;17.180;2022-12-18T05:51:41;35.50;;;20.90;;
47912;SDS011;33676;51.006;17.180;2022-12-18T05:54:10;31.10;;;18.70;;
47912;SDS011;33676;51.006;17.180;2022-12-18T05:56:39;38.00;;;20.20;;
47912;SDS011;33676;51.006;17.180;2022-12-18T05:59:15;38.60;;;22.60;;
47912;SDS011;33676;51.006;17.180;2022-12-18T06:01:44;48.00;;;23.70;;
47912;SDS011;33676;51.006;17.180;2022-12-18T06:04:12;38.70;;;22.10;;
47912;SDS011;33676;51.006;17.180;2022-12-18T06:06:41;39.70;;;23.30;;
47912;SDS011;33676;51.006;17.180;2022-12-18T06:09:11;44.10;;;26.00;;
47912;SDS011;33676;51.006;17.180;2022-12-18T06:11:40;38.40;;;22.10;;
47912;SDS011;33676;51.006;17.180;2022-12-18T06:14:09;42.70;;;25.40;;
47912;SDS011;33676;51.006;17.180;2022-12-18T06:16:38;40.60;;;23.40;;
47912;SDS011;33676;51.006;17.180;2022-12-18T06:19:07;47.40;;;25.80;;
47912;SDS011;33676;51.006;17.180;2022-12-18T06:21:35;41.20;;;23.90;;
47912;SDS011;33676;51.006;17.180;2022-12-18T06:24:04;45.10;;;24.20;;
47912;SDS011;33676;51.006;17.180;2022-12-18T06:26:33;44.50;;;24.70;;
47912;SDS011;33676;51.006;17.180;2022-12-18T06:29:02;40.70;;;24.40;;
47912;SDS011;33676;51.006;17.180;2022-12-18T06:31:30;39.70;;;22.30;;
47912;SDS011;33676;51.006;17.180;2022-12-18T06:34:02;44.30;;;26.50;;
47912;SDS011;33676;51.006;17.180;2022-12-18T06:36:32;45.00;;;25.70;;
47912;SDS011;33676;51.006;17.180;2022-12-18T06:39:00;44.30;;;25.30;;
47912;SDS011;33676;51.006;17.180;2022-12-18T06:41:29;46.80;;;25.10;;
47912;SDS011;33676;51.006;17.180;2022-12-18T06:43:58;57.60;;;30.80;;
47912;SDS011;33676;51.006;17.180;2022-12-18T06:46:27;46.00;;;25.80;;
47912;SDS011;33676;51.006;17.180;2022-12-18T06:48:56;47.80;;;27.00;;
47912;SDS011;33676;51.006;17.180;2022-12-18T06:51:24;41.00;;;23.80;;
47912;SDS011;33676;51.006;17.180;2022-12-18T06:53:54;37.90;;;22.30;;
47912;SDS011;33676;51.006;17.180;2022-12-18T06:56:23;38.70;;;22.80;;
47912;SDS011;33676;51.006;17.180;2022-12-18T06:58:51;42.00;;;23.90;;
47912;SDS011;33676;51.006;17.180;2022-12-18T07:01:21;33.60;;;19.60;;
47912;SDS011;33676;51.006;17.180;2022-12-18T07:03:54;38.20;;;23.50;;
47912;SDS011;33676;51.006;17.180;2022-12-18T07:06:25;47.90;;;30.70;;
47912;SDS011;33676;51.006;17.180;2022-12-18T07:08:54;38.30;;;21.90;;
47912;SDS011;33676;51.006;17.180;2022-12-18T07:11:23;41.30;;;22.40;;
47912;SDS011;33676;51.006;17.180;2022-12-18T07:13:52;47.30;;;28.20;;
47912;SDS011;33676;51.006;17.180;2022-12-18T07:16:22;37.70;;;23.00;;
47912;SDS011;33676;51.006;17.180;2022-12-18T07:18:54;31.50;;;21.10;;
47912;SDS011;33676;51.006;17.180;2022-12-18T07:21:24;39.90;;;21.90;;
47912;SDS011;33676;51.006;17.180;2022-12-18T07:23:52;42.60;;;22.60;;
47912;SDS011;33676;51.006;17.180;2022-12-18T07:26:21;41.10;;;22.20;;
47912;SDS011;33676;51.006;17.180;2022-12-18T07:28:55;26.80;;;17.60;;
47912;SDS011;33676;51.006;17.180;2022-12-18T07:31:26;41.10;;;23.50;;
47912;SDS011;33676;51.006;17.180;2022-12-18T07:33:55;44.70;;;24.30;;
47912;SDS011;33676;51.006;17.180;2022-12-18T07:36:24;34.20;;;19.60;;
47912;SDS011;33676;51.006;17.180;2022-12-18T07:38:53;33.00;;;19.70;;
47912;SDS011;33676;51.006;17.180;2022-12-18T07:41:21;41.10;;;24.50;;
47912;SDS011;33676;51.006;17.180;2022-12-18T07:43:50;31.10;;;18.90;;
47912;SDS011;33676;51.006;17.180;2022-12-18T07:46:19;31.60;;;19.90;;
47912;SDS011;33676;51.006;17.180;2022-12-18T07:48:48;45.50;;;26.50;;
47912;SDS011;33676;51.006;17.180;2022-12-18T07:51:18;61.00;;;45.80;;
47912;SDS011;33676;51.006;17.180;2022-12-18T07:53:47;87.50;;;56.50;;
47912;SDS011;33676;51.006;17.180;2022-12-18T07:56:19;178.40;;;118.40;;
47912;SDS011;33676;51.006;17.180;2022-12-18T07:58:58;83.20;;;50.30;;
47912;SDS011;33676;51.006;17.180;2022-12-18T08:01:27;418.40;;;256.20;;
47912;SDS011;33676;51.006;17.180;2022-12-18T08:03:57;522.30;;;267.90;;
47912;SDS011;33676;51.006;17.180;2022-12-18T08:06:26;411.30;;;218.10;;
47912;SDS011;33676;51.006;17.180;2022-12-18T08:08:55;368.60;;;211.50;;
47912;SDS011;33676;51.006;17.180;2022-12-18T08:11:25;297.80;;;162.30;;
47912;SDS011;33676;51.006;17.180;2022-12-18T08:13:55;317.70;;;196.10;;
47912;SDS011;33676;51.006;17.180;2022-12-18T08:16:25;147.90;;;81.80;;
47912;SDS011;33676;51.006;17.180;2022-12-18T08:18:54;256.00;;;163.10;;
47912;SDS011;33676;51.006;17.180;2022-12-18T08:21:25;210.60;;;130.80;;
47912;SDS011;33676;51.006;17.180;2022-12-18T08:23:58;92.70;;;60.20;;
47912;SDS011;33676;51.006;17.180;2022-12-18T08:26:30;85.90;;;55.40;;
47912;SDS011;33676;51.006;17.180;2022-12-18T08:29:00;51.40;;;29.00;;
47912;SDS011;33676;51.006;17.180;2022-12-18T08:31:29;34.40;;;22.80;;
47912;SDS011;33676;51.006;17.180;2022-12-18T08:33:59;38.40;;;24.20;;
47912;SDS011;33676;51.006;17.180;2022-12-18T08:36:28;32.00;;;19.80;;
47912;SDS011;33676;51.006;17.180;2022-12-18T08:38:56;57.30;;;34.00;;
47912;SDS011;33676;51.006;17.180;2022-12-18T08:41:26;76.10;;;48.90;;
47912;SDS011;33676;51.006;17.180;2022-12-18T08:43:54;94.10;;;59.40;;
47912;SDS011;33676;51.006;17.180;2022-12-18T08:46:43;321.80;;;179.00;;
47912;SDS011;33676;51.006;17.180;2022-12-18T08:49:12;153.80;;;74.50;;
47912;SDS011;33676;51.006;17.180;2022-12-18T08:51:40;150.80;;;84.50;;
47912;SDS011;33676;51.006;17.180;2022-12-18T08:54:11;96.80;;;53.80;;
47912;SDS011;33676;51.006;17.180;2022-12-18T08:56:41;183.50;;;97.60;;
47912;SDS011;33676;51.006;17.180;2022-12-18T08:59:10;61.00;;;34.40;;
47912;SDS011;33676;51.006;17.180;2022-12-18T09:01:46;41.50;;;25.70;;
47912;SDS011;33676;51.006;17.180;2022-12-18T09:04:16;53.00;;;32.60;;
47912;SDS011;33676;51.006;17.180;2022-12-18T09:06:45;137.70;;;76.20;;
47912;SDS011;33676;51.006;17.180;2022-12-18T09:09:13;120.50;;;62.20;;
47912;SDS011;33676;51.006;17.180;2022-12-18T09:11:42;307.50;;;198.50;;
47912;SDS011;33676;51.006;17.180;2022-12-18T09:14:11;262.60;;;162.30;;
47912;SDS011;33676;51.006;17.180;2022-12-18T09:16:39;110.00;;;56.60;;
47912;SDS011;33676;51.006;17.180;2022-12-18T09:19:08;113.70;;;71.10;;
47912;SDS011;33676;51.006;17.180;2022-12-18T09:21:38;367.00;;;232.60;;
47912;SDS011;33676;51.006;17.180;2022-12-18T09:24:15;265.60;;;181.60;;
47912;SDS011;33676;51.006;17.180;2022-12-18T09:26:44;190.90;;;105.40;;
47912;SDS011;33676;51.006;17.180;2022-12-18T09:29:15;185.10;;;115.20;;
47912;SDS011;33676;51.006;17.180;2022-12-18T09:31:46;77.00;;;46.40;;
47912;SDS011;33676;51.006;17.180;2022-12-18T09:34:15;64.60;;;44.30;;
47912;SDS011;33676;51.006;17.180;2022-12-18T09:36:44;83.00;;;54.60;;
47912;SDS011;33676;51.006;17.180;2022-12-18T09:39:14;47.10;;;27.80;;
47912;SDS011;33676;51.006;17.180;2022-12-18T09:49:45;141.90;;;85.10;;
47912;SDS011;33676;51.006;17.180;2022-12-18T09:55:14;78.70;;;52.90;;
47912;SDS011;33676;51.006;17.180;2022-12-18T09:57:53;165.00;;;102.10;;
47912;SDS011;33676;51.006;17.180;2022-12-18T10:00:25;268.50;;;160.00;;
47912;SDS011;33676;51.006;17.180;2022-12-18T10:02:59;150.30;;;81.60;;
47912;SDS011;33676;51.006;17.180;2022-12-18T10:08:45;117.80;;;75.70;;
47912;SDS011;33676;51.006;17.180;2022-12-18T10:14:45;134.10;;;85.50;;
47912;SDS011;33676;51.006;17.180;2022-12-18T10:20:34;107.50;;;65.00;;
47912;SDS011;33676;51.006;17.180;2022-12-18T10:26:02;223.30;;;162.10;;
47912;SDS011;33676;51.006;17.180;2022-12-18T10:28:35;119.20;;;77.90;;
47912;SDS011;33676;51.006;17.180;2022-12-18T10:31:06;110.60;;;69.90;;
47912;SDS011;33676;51.006;17.180;2022-12-18T10:33:45;278.00;;;187.10;;
47912;SDS011;33676;51.006;17.180;2022-12-18T10:36:14;104.30;;;69.10;;
47912;SDS011;33676;51.006;17.180;2022-12-18T10:38:43;62.00;;;39.70;;
47912;SDS011;33676;51.006;17.180;2022-12-18T10:46:49;505.50;;;304.10;;
47912;SDS011;33676;51.006;17.180;2022-12-18T10:49:26;200.90;;;98.20;;
47912;SDS011;33676;51.006;17.180;2022-12-18T10:52:15;221.20;;;138.30;;
47912;SDS011;33676;51.006;17.180;2022-12-18T10:55:00;160.60;;;95.30;;
47912;SDS011;33676;51.006;17.180;2022-12-18T10:57:38;131.00;;;79.00;;
47912;SDS011;33676;51.006;17.180;2022-12-18T11:00:26;120.50;;;69.00;;
47912;SDS011;33676;51.006;17.180;2022-12-18T11:02:58;108.90;;;67.10;;
47912;SDS011;33676;51.006;17.180;2022-12-18T11:08:01;74.60;;;48.80;;
47912;SDS011;33676;51.006;17.180;2022-12-18T11:10:31;66.50;;;43.90;;
47912;SDS011;33676;51.006;17.180;2022-12-18T11:15:55;111.00;;;71.50;;
47912;SDS011;33676;51.006;17.180;2022-12-18T11:18:32;99.10;;;61.00;;
47912;SDS011;33676;51.006;17.180;2022-12-18T11:23:36;57.50;;;37.90;;
47912;SDS011;33676;51.006;17.180;2022-12-18T11:26:12;73.20;;;51.00;;
47912;SDS011;33676;51.006;17.180;2022-12-18T11:28:47;55.60;;;36.60;;
47912;SDS011;33676;51.006;17.180;2022-12-18T11:31:26;46.70;;;29.60;;
47912;SDS011;33676;51.006;17.180;2022-12-18T11:36:58;49.80;;;28.60;;
47912;SDS011;33676;51.006;17.180;2022-12-18T11:39:40;77.70;;;52.20;;
47912;SDS011;33676;51.006;17.180;2022-12-18T11:42:48;64.00;;;43.30;;
47912;SDS011;33676;51.006;17.180;2022-12-18T11:45:28;76.30;;;52.50;;
47912;SDS011;33676;51.006;17.180;2022-12-18T11:48:21;77.50;;;49.60;;
47912;SDS011;33676;51.006;17.180;2022-12-18T11:50:57;57.80;;;36.30;;
47912;SDS011;33676;51.006;17.180;2022-12-18T11:53:28;55.80;;;36.80;;
47912;SDS011;33676;51.006;17.180;2022-12-18T11:58:53;51.20;;;35.50;;
47912;SDS011;33676;51.006;17.180;2022-12-18T12:01:52;45.10;;;28.10;;
47912;SDS011;33676;51.006;17.180;2022-12-18T12:04:37;110.70;;;71.70;;
47912;SDS011;33676;51.006;17.180;2022-12-18T12:08:00;250.80;;;161.30;;
47912;SDS011;33676;51.006;17.180;2022-12-18T12:10:55;153.70;;;91.80;;
47912;SDS011;33676;51.006;17.180;2022-12-18T12:13:33;108.80;;;77.50;;
47912;SDS011;33676;51.006;17.180;2022-12-18T12:22:05;129.90;;;82.50;;
47912;SDS011;33676;51.006;17.180;2022-12-18T12:30:43;77.20;;;46.90;;
47912;SDS011;33676;51.006;17.180;2022-12-18T12:33:27;93.70;;;61.30;;
47912;SDS011;33676;51.006;17.180;2022-12-18T12:39:11;93.70;;;53.30;;
47912;SDS011;33676;51.006;17.180;2022-12-18T12:41:45;103.20;;;58.80;;
47912;SDS011;33676;51.006;17.180;2022-12-18T12:44:39;72.90;;;42.40;;
47912;SDS011;33676;51.006;17.180;2022-12-18T12:47:30;76.70;;;45.10;;
47912;SDS011;33676;51.006;17.180;2022-12-18T12:50:11;69.40;;;39.80;;
47912;SDS011;33676;51.006;17.180;2022-12-18T12:52:45;93.90;;;53.30;;
47912;SDS011;33676;51.006;17.180;2022-12-18T13:00:56;53.10;;;35.50;;
47912;SDS011;33676;51.006;17.180;2022-12-18T13:09:01;46.30;;;32.20;;
47912;SDS011;33676;51.006;17.180;2022-12-18T13:11:39;45.20;;;30.00;;
47912;SDS011;33676;51.006;17.180;2022-12-18T13:14:36;44.60;;;32.00;;
47912;SDS011;33676;51.006;17.180;2022-12-18T13:19:49;49.90;;;33.30;;
47912;SDS011;33676;51.006;17.180;2022-12-18T13:22:25;48.90;;;32.80;;
47912;SDS011;33676;51.006;17.180;2022-12-18T13:24:59;45.60;;;29.00;;
47912;SDS011;33676;51.006;17.180;2022-12-18T13:38:42;72.70;;;44.20;;
47912;SDS011;33676;51.006;17.180;2022-12-18T13:43:55;67.60;;;42.10;;
47912;SDS011;33676;51.006;17.180;2022-12-18T13:46:47;64.90;;;38.80;;
47912;SDS011;33676;51.006;17.180;2022-12-18T13:49:36;65.30;;;45.50;;
47912;SDS011;33676;51.006;17.180;2022-12-18T13:52:17;58.60;;;33.90;;
47912;SDS011;33676;51.006;17.180;2022-12-18T13:54:51;56.90;;;36.60;;
47912;SDS011;33676;51.006;17.180;2022-12-18T14:02:50;55.90;;;36.30;;
47912;SDS011;33676;51.006;17.180;2022-12-18T14:05:56;71.10;;;45.90;;
47912;SDS011;33676;51.006;17.180;2022-12-18T14:08:33;67.60;;;45.80;;
47912;SDS011;33676;51.006;17.180;2022-12-18T14:11:10;51.80;;;32.40;;
47912;SDS011;33676;51.006;17.180;2022-12-18T14:13:50;57.00;;;37.40;;
47912;SDS011;33676;51.006;17.180;2022-12-18T14:16:19;55.50;;;33.30;;
47912;SDS011;33676;51.006;17.180;2022-12-18T14:18:52;102.90;;;64.10;;
47912;SDS011;33676;51.006;17.180;2022-12-18T14:21:47;64.10;;;40.90;;
47912;SDS011;33676;51.006;17.180;2022-12-18T14:24:20;143.60;;;90.20;;
47912;SDS011;33676;51.006;17.180;2022-12-18T14:26:50;78.40;;;47.10;;
47912;SDS011;33676;51.006;17.180;2022-12-18T14:29:30;63.80;;;34.20;;
47912;SDS011;33676;51.006;17.180;2022-12-18T14:32:14;59.80;;;37.20;;
47912;SDS011;33676;51.006;17.180;2022-12-18T14:34:48;53.70;;;30.30;;
47912;SDS011;33676;51.006;17.180;2022-12-18T14:37:26;54.50;;;29.70;;
47912;SDS011;33676;51.006;17.180;2022-12-18T14:39:59;49.50;;;29.30;;
47912;SDS011;33676;51.006;17.180;2022-12-18T14:42:38;52.20;;;29.10;;
47912;SDS011;33676;51.006;17.180;2022-12-18T14:45:35;55.20;;;30.20;;
47912;SDS011;33676;51.006;17.180;2022-12-18T14:48:17;43.40;;;25.10;;
47912;SDS011;33676;51.006;17.180;2022-12-18T14:51:02;48.70;;;26.90;;
47912;SDS011;33676;51.006;17.180;2022-12-18T14:56:35;41.20;;;25.40;;
47912;SDS011;33676;51.006;17.180;2022-12-18T14:59:19;48.90;;;27.50;;
47912;SDS011;33676;51.006;17.180;2022-12-18T15:02:17;47.70;;;27.20;;
47912;SDS011;33676;51.006;17.180;2022-12-18T15:07:50;49.10;;;28.20;;
47912;SDS011;33676;51.006;17.180;2022-12-18T15:14:41;49.00;;;28.30;;
47912;SDS011;33676;51.006;17.180;2022-12-18T15:17:21;58.60;;;30.90;;
47912;SDS011;33676;51.006;17.180;2022-12-18T15:19:58;53.80;;;32.20;;
47912;SDS011;33676;51.006;17.180;2022-12-18T15:22:33;64.70;;;35.60;;
47912;SDS011;33676;51.006;17.180;2022-12-18T15:25:19;77.80;;;42.70;;
47912;SDS011;33676;51.006;17.180;2022-12-18T15:28:03;84.30;;;50.70;;
47912;SDS011;33676;51.006;17.180;2022-12-18T15:33:40;53.70;;;30.10;;
47912;SDS011;33676;51.006;17.180;2022-12-18T15:36:13;49.20;;;29.80;;
47912;SDS011;33676;51.006;17.180;2022-12-18T15:38:52;63.50;;;36.00;;
47912;SDS011;33676;51.006;17.180;2022-12-18T15:41:23;69.40;;;35.80;;
47912;SDS011;33676;51.006;17.180;2022-12-18T15:43:52;61.20;;;34.60;;
47912;SDS011;33676;51.006;17.180;2022-12-18T15:46:23;55.60;;;29.30;;
47912;SDS011;33676;51.006;17.180;2022-12-18T15:48:57;57.80;;;30.70;;
47912;SDS011;33676;51.006;17.180;2022-12-18T15:51:34;65.60;;;36.20;;
47912;SDS011;33676;51.006;17.180;2022-12-18T15:54:06;64.30;;;36.80;;
47912;SDS011;33676;51.006;17.180;2022-12-18T15:56:41;67.00;;;41.30;;
47912;SDS011;33676;51.006;17.180;2022-12-18T15:59:28;58.40;;;33.20;;
47912;SDS011;33676;51.006;17.180;2022-12-18T16:01:57;48.70;;;31.20;;
47912;SDS011;33676;51.006;17.180;2022-12-18T16:04:26;63.60;;;37.10;;
47912;SDS011;33676;51.006;17.180;2022-12-18T16:06:55;73.60;;;43.10;;
47912;SDS011;33676;51.006;17.180;2022-12-18T16:09:44;67.50;;;38.50;;
47912;SDS011;33676;51.006;17.180;2022-12-18T16:12:22;58.20;;;33.90;;
47912;SDS011;33676;51.006;17.180;2022-12-18T16:14:53;60.90;;;34.00;;
47912;SDS011;33676;51.006;17.180;2022-12-18T16:17:21;62.30;;;38.60;;
47912;SDS011;33676;51.006;17.180;2022-12-18T16:19:50;72.30;;;37.40;;
47912;SDS011;33676;51.006;17.180;2022-12-18T16:22:24;69.50;;;39.10;;
47912;SDS011;33676;51.006;17.180;2022-12-18T16:24:56;54.00;;;32.30;;
47912;SDS011;33676;51.006;17.180;2022-12-18T16:27:25;60.60;;;35.40;;
47912;SDS011;33676;51.006;17.180;2022-12-18T16:29:54;66.20;;;36.10;;
47912;SDS011;33676;51.006;17.180;2022-12-18T16:32:23;62.40;;;36.70;;
47912;SDS011;33676;51.006;17.180;2022-12-18T16:34:51;64.20;;;37.50;;
47912;SDS011;33676;51.006;17.180;2022-12-18T16:37:20;66.30;;;37.10;;
47912;SDS011;33676;51.006;17.180;2022-12-18T16:39:49;60.70;;;37.60;;
47912;SDS011;33676;51.006;17.180;2022-12-18T16:42:18;72.60;;;40.60;;
47912;SDS011;33676;51.006;17.180;2022-12-18T16:44:49;72.40;;;41.20;;
47912;SDS011;33676;51.006;17.180;2022-12-18T16:47:18;91.90;;;51.60;;
47912;SDS011;33676;51.006;17.180;2022-12-18T16:49:47;83.80;;;49.30;;
47912;SDS011;33676;51.006;17.180;2022-12-18T16:52:19;86.50;;;50.00;;